Aérodrome :
LOGIN :

S'inscrire | Disclaimer

   EN    FR    IT 

 










Légende :    VFR   VFR Marginal   IFR   IFR Intensif   IFR Très Intensif
Visi : 
Plafond : 
>= 8 km
>= 3000ft
5 à 8 km
1000 à 3000 ft
1500m à 5 km
500 à 1000 ft
800 à 1500m
200 à 500 ft
< 800m
< 200 ft
Symboles :   Orages  Brouillard  Fortes neiges  Fortes précipitations  Vent > 20 kt
SIGMETs :   Divers  Orages  Givrage  Turbulence  Onde Orograph.  Cendres Volcan.






- Altitude de l'aérodrome : 392 ft
- Code IATA : CDG


LFPG - Paris-Aeroport Charles De Gaulle

DERNIER METAR :
  • 041400Z 20004KT 160V270 9999 FEW034 SCT100 20/11 Q1012 NOSIG

METARs EXPIRÉS :
  • 041346Z 19004KT 100V240 9999 FEW034 SCT100 20/12 Q1012 NOSIG
  • 041330Z 16007KT 100V220 9999 -RA FEW027TCU BKN100 19/12 Q1012 NOSIG
  • 041300Z 14008KT 110V170 9999 -RA FEW033TCU SCT043 BKN100 19/11 Q1012 NOSIG
  • 041230Z VRB03KT 9999 -RA FEW030 SCT060 BKN100 19/10 Q1012 NOSIG
  • 041200Z 13006KT 070V160 9999 -RA FEW033 SCT052 BKN100 20/09 Q1012 NOSIG
  • 041130Z VRB03KT 9999 -RA FEW031TCU SCT042 BKN052 20/09 Q1013 NOSIG

TAF TAF LFPG
Valide du 04 à 12h jusqu'au 05 à 18h UTC


041100Z 0412/0518 15005KT 9999 BKN040 TX22/0413Z TN14/0504Z
PROB40
TEMPO 0412/0418 4000 -SHRA SCT020TCU
PROB30 0505/0506 4000 BR
BECMG 0510/0512 22010KT
TEMPO 0514/0518 23015G25KT
ATIS : +33 1 48 62 10 92



MET'MAP, la Météo Aéronautique d'un coup d'oeil ! - Copyright ORBIFLY Décembre 2007 - Disclaimer

ORBIFLY MET'MAP TEAM :

Programmation & Développement : Alexandra Zaïnal
Sur une idée originale de : Baudouin d'Aumeries
Assistance à la programmation : Marc-Olivier Méhu
Soutien technique & logistique : Manuel Goepfert

Contact : metmap@orbifly.com




SOURCES & CREDITS :

   NOAA